Celik 1 — 9HKY9 — position and weather

sailwx.info

Track history (hours):
 
Tides and Currents Weather Stations Pressure Air Temp Water Temp Dewpoint Dewpoint Depression Visibility Wind Speed Wind Dir Waves Ship Positions

Celik 1

Last reported at 2018-Apr-24 18:30 UTC. Time now 2018-Apr-24 18:37 UTC.
Position N 35°58' E 031°59'.

Length 121 m; draft 6.8 m.

Type: Cargo ship. MMSI: 249114000.

Date/timePositionNaut miles runAvg speedWind from/ knotsBaromVisibWave heightAir tempDewpointWater temp
2018-Apr-24 18:30N 35°58' E 031°59'5 9.3
2018-Apr-24 18:00N 35°58' E 031°53'5 9.2
2018-Apr-24 17:30N 35°58' E 031°47'5 9.2
2018-Apr-24 17:00N 35°59' E 031°42'5 9.1
2018-Apr-24 16:30N 35°59' E 031°36'5 9.3
2018-Apr-24 16:00N 35°59' E 031°30'5 9.3
2018-Apr-24 15:30N 35°59' E 031°25'5 9.1
2018-Apr-24 15:00N 35°60' E 031°19'5 9.1
2018-Apr-24 14:30N 35°60' E 031°13'4 8.9
2018-Apr-24 14:00N 36°00' E 031°08'4 9.0
2018-Apr-24 13:30N 36°00' E 031°02'5 9.1
2018-Apr-24 13:00N 36°01' E 030°57'5 9.2
2018-Apr-24 12:30N 36°01' E 030°51'5 9.1
2018-Apr-24 12:00N 36°01' E 030°45'5 9.1
2018-Apr-24 11:30N 36°01' E 030°40'4 9.0
2018-Apr-24 11:00N 36°01' E 030°34'5 9.1
2018-Apr-24 10:30N 36°02' E 030°29'5 9.2
2018-Apr-24 10:00N 36°02' E 030°23'319 7.4
2018-Apr-22 14:52N 39°54' E 025°44'0 0.2
2018-Apr-22 14:21N 39°54' E 025°44'0 0.2
2018-Apr-22 13:56N 39°54' E 025°44'3 3.0
2018-Apr-22 13:01N 39°55' E 025°48'0 7.6
2018-Apr-22 13:00N 39°55' E 025°48'4 7.7
2018-Apr-22 12:28N 39°57' E 025°52'5 8.5
2018-Apr-22 11:55N 39°59' E 025°58'4 8.7
2018-Apr-22 11:30N 40°01' E 026°02'610.3
2018-Apr-22 10:58N 40°02' E 026°09'  
Track history (hours):
 
Tides and Currents Weather Stations Pressure Air Temp Water Temp Dewpoint Dewpoint Depression Visibility Wind Speed Wind Dir Waves Ship Positions

Celik 1

Last reported at 2018-Apr-24 18:30 UTC. Time now 2018-Apr-24 18:37 UTC.
Position N 35°58' E 031°59'.

Length 121 m; draft 6.8 m.

Type: Cargo ship. MMSI: 249114000.

Date/timePositionNaut miles runAvg speedWind from/ knotsBaromVisibWave heightAir tempDewpointWater temp
2018-Apr-24 18:30N 35°58' E 031°59'5 9.3
2018-Apr-24 18:00N 35°58' E 031°53'5 9.2
2018-Apr-24 17:30N 35°58' E 031°47'5 9.2
2018-Apr-24 17:00N 35°59' E 031°42'5 9.1
2018-Apr-24 16:30N 35°59' E 031°36'5 9.3
2018-Apr-24 16:00N 35°59' E 031°30'5 9.3
2018-Apr-24 15:30N 35°59' E 031°25'5 9.1
2018-Apr-24 15:00N 35°60' E 031°19'5 9.1
2018-Apr-24 14:30N 35°60' E 031°13'4 8.9
2018-Apr-24 14:00N 36°00' E 031°08'4 9.0
2018-Apr-24 13:30N 36°00' E 031°02'5 9.1
2018-Apr-24 13:00N 36°01' E 030°57'5 9.2
2018-Apr-24 12:30N 36°01' E 030°51'5 9.1
2018-Apr-24 12:00N 36°01' E 030°45'5 9.1
2018-Apr-24 11:30N 36°01' E 030°40'4 9.0
2018-Apr-24 11:00N 36°01' E 030°34'5 9.1
2018-Apr-24 10:30N 36°02' E 030°29'5 9.2
2018-Apr-24 10:00N 36°02' E 030°23'319 7.4
2018-Apr-22 14:52N 39°54' E 025°44'0 0.2
2018-Apr-22 14:21N 39°54' E 025°44'0 0.2
2018-Apr-22 13:56N 39°54' E 025°44'3 3.0
2018-Apr-22 13:01N 39°55' E 025°48'0 7.6
2018-Apr-22 13:00N 39°55' E 025°48'4 7.7
2018-Apr-22 12:28N 39°57' E 025°52'5 8.5
2018-Apr-22 11:55N 39°59' E 025°58'4 8.7
2018-Apr-22 11:30N 40°01' E 026°02'610.3
2018-Apr-22 10:58N 40°02' E 026°09'  

Dump ship's entire track history